createdAt,value
2022-12-16T00:01:36.178Z,73.67
2022-12-16T00:04:03.865Z,81.83
2022-12-16T00:06:33.755Z,77.53
2022-12-16T00:09:01.556Z,79.37
2022-12-16T00:11:32.340Z,84.80
2022-12-16T00:13:59.946Z,80.00
2022-12-16T00:16:27.364Z,80.83
2022-12-16T00:18:54.850Z,72.43
2022-12-16T00:21:23.606Z,66.53
2022-12-16T00:23:50.977Z,60.87
2022-12-16T00:26:19.267Z,52.17
2022-12-16T00:28:46.754Z,61.43
2022-12-16T00:31:14.248Z,52.30
2022-12-16T00:33:41.968Z,49.33
2022-12-16T00:36:10.078Z,40.77
2022-12-16T00:38:38.297Z,40.07
2022-12-16T00:41:05.785Z,43.43
2022-12-16T00:43:33.641Z,38.70
2022-12-16T00:46:01.382Z,36.20
2022-12-16T00:48:28.898Z,40.37
2022-12-16T00:50:56.322Z,37.33
2022-12-16T00:53:24.839Z,40.60
2022-12-16T00:56:01.321Z,30.03
2022-12-16T00:58:28.816Z,27.77
2022-12-16T01:00:56.166Z,27.20
2022-12-16T01:03:24.408Z,27.20
2022-12-16T01:05:51.933Z,25.23
2022-12-16T01:08:19.899Z,27.67
2022-12-16T01:10:55.893Z,22.63
2022-12-16T01:13:25.176Z,24.87
2022-12-16T01:15:53.348Z,22.77
2022-12-16T01:18:21.211Z,22.57
2022-12-16T01:20:48.646Z,20.30
2022-12-16T01:23:16.081Z,20.37
2022-12-16T01:25:43.517Z,18.73
2022-12-16T01:28:10.942Z,17.90
2022-12-16T01:30:38.546Z,17.97
2022-12-16T01:33:05.781Z,17.37
2022-12-16T01:38:20.394Z,15.93
2022-12-16T01:40:47.723Z,15.23
2022-12-16T01:43:17.090Z,15.53
2022-12-16T01:45:44.933Z,14.07
2022-12-16T01:48:26.479Z,14.50
2022-12-16T01:51:00.631Z,12.70
2022-12-16T01:53:28.418Z,12.80
2022-12-16T01:55:57.788Z,11.83
2022-12-16T01:58:30.300Z,11.53
2022-12-16T02:00:58.877Z,11.93
2022-12-16T02:03:30.628Z,12.90
2022-12-16T02:05:59.459Z,11.10
2022-12-16T02:08:26.948Z,11.87
2022-12-16T02:11:08.267Z,12.50
2022-12-16T02:14:02.102Z,11.50
2022-12-16T02:16:43.940Z,12.23
2022-12-16T02:19:49.117Z,11.97
2022-12-16T02:22:28.917Z,10.80
2022-12-16T02:25:38.457Z,10.53
2022-12-16T02:28:05.720Z,10.50
2022-12-16T02:31:09.832Z,10.10
2022-12-16T02:34:10.475Z,9.17
2022-12-16T02:36:53.137Z,8.57
2022-12-16T02:39:25.756Z,9.27
2022-12-16T02:42:01.952Z,8.10
2022-12-16T02:45:16.232Z,8.93
2022-12-16T02:47:44.987Z,7.97
2022-12-16T02:50:33.552Z,7.63
2022-12-16T02:53:03.199Z,7.60
2022-12-16T02:55:45.394Z,7.63
2022-12-16T02:58:19.028Z,8.03
2022-12-16T03:00:52.901Z,8.20
2022-12-16T03:03:50.153Z,7.90
2022-12-16T03:06:21.623Z,7.57
2022-12-16T03:08:54.641Z,7.83
2022-12-16T03:11:23.913Z,7.70
2022-12-16T03:13:54.672Z,7.97
2022-12-16T03:16:26.520Z,13.80
2022-12-16T03:18:59.594Z,9.03
2022-12-16T03:21:32.201Z,9.37
2022-12-16T03:24:03.399Z,8.00
2022-12-16T03:26:53.965Z,6.47
2022-12-16T03:29:57.267Z,5.67
2022-12-16T03:32:37.903Z,5.43
2022-12-16T03:35:23.209Z,5.73
2022-12-16T03:37:55.349Z,5.20
2022-12-16T03:40:25.523Z,6.27
2022-12-16T03:42:53.905Z,7.10
2022-12-16T03:45:27.949Z,8.13
2022-12-16T03:47:58.229Z,7.87
2022-12-16T03:50:36.228Z,6.33
2022-12-16T03:53:05.386Z,5.13
2022-12-16T03:55:33.201Z,5.23
2022-12-16T03:58:00.826Z,5.20
2022-12-16T04:00:28.078Z,5.47
2022-12-16T04:02:55.494Z,6.50
2022-12-16T04:05:23.528Z,6.43
2022-12-16T04:07:51.233Z,6.47
2022-12-16T04:10:38.612Z,6.10
2022-12-16T04:13:24.423Z,7.03
2022-12-16T04:16:10.757Z,7.57
2022-12-16T04:19:18.669Z,6.23
2022-12-16T04:22:05.138Z,7.53
2022-12-16T04:24:33.341Z,7.40
2022-12-16T04:27:19.114Z,7.73
2022-12-16T04:30:04.874Z,7.20
2022-12-16T04:32:52.498Z,7.43
2022-12-16T04:35:39.042Z,6.90
2022-12-16T04:38:24.859Z,6.97
2022-12-16T04:41:10.777Z,6.90
2022-12-16T04:43:56.916Z,7.97
2022-12-16T04:46:43.026Z,6.20
2022-12-16T04:49:29.344Z,8.03
2022-12-16T04:52:15.049Z,7.47
2022-12-16T04:55:00.947Z,7.93
2022-12-16T04:57:46.765Z,10.93
2022-12-16T05:00:33.115Z,14.97
2022-12-16T05:03:19.257Z,9.43
2022-12-16T05:06:05.273Z,12.10
2022-12-16T05:08:51.354Z,8.43
2022-12-16T05:11:37.496Z,5.97
2022-12-16T05:14:24.222Z,6.80
2022-12-16T05:17:09.908Z,5.87
2022-12-16T05:19:55.686Z,5.03
2022-12-16T05:22:41.594Z,6.93
2022-12-16T05:25:28.264Z,5.83
2022-12-16T05:28:14.209Z,5.43
2022-12-16T05:30:59.969Z,4.97
2022-12-16T05:33:46.191Z,4.80
2022-12-16T05:36:32.240Z,4.50
2022-12-16T05:39:18.233Z,4.93
2022-12-16T05:42:04.113Z,4.57
2022-12-16T05:44:49.903Z,8.77
2022-12-16T05:47:36.068Z,5.40
2022-12-16T05:50:22.574Z,4.57
2022-12-16T05:53:09.847Z,5.10
2022-12-16T05:55:55.857Z,4.83
2022-12-16T05:58:42.600Z,4.83
2022-12-16T06:01:29.139Z,4.83
2022-12-16T06:04:17.746Z,5.00
2022-12-16T06:07:04.068Z,6.10
2022-12-16T06:09:54.836Z,6.20
2022-12-16T06:12:42.943Z,5.83
2022-12-16T06:15:29.227Z,5.87
2022-12-16T06:18:15.691Z,6.37
2022-12-16T06:21:02.605Z,6.20
2022-12-16T06:23:48.678Z,6.43
2022-12-16T06:26:34.683Z,6.47
2022-12-16T06:29:20.808Z,7.50
2022-12-16T06:32:06.537Z,7.13
2022-12-16T06:34:52.580Z,7.27
2022-12-16T06:37:38.155Z,8.13
2022-12-16T06:40:24.567Z,8.53
2022-12-16T06:43:10.373Z,8.50
2022-12-16T06:45:56.158Z,8.47
2022-12-16T06:48:41.942Z,10.43
2022-12-16T06:51:27.739Z,11.87
2022-12-16T06:54:13.541Z,14.47
2022-12-16T06:56:59.442Z,13.10
2022-12-16T06:59:45.401Z,13.37
2022-12-16T07:02:31.354Z,13.20
2022-12-16T07:05:17.022Z,14.07
2022-12-16T07:08:07.437Z,14.20
2022-12-16T07:10:55.445Z,12.90
2022-12-16T07:13:44.410Z,13.13
2022-12-16T07:16:30.658Z,13.00
2022-12-16T07:19:16.695Z,13.20
2022-12-16T07:22:02.790Z,13.37
2022-12-16T07:24:48.725Z,12.50
2022-12-16T07:27:34.643Z,13.90
2022-12-16T07:30:21.202Z,12.27
2022-12-16T07:33:09.055Z,12.53
2022-12-16T07:35:55.121Z,12.27
2022-12-16T07:38:41.474Z,13.00
2022-12-16T07:41:27.446Z,10.73
2022-12-16T07:44:13.573Z,11.30
2022-12-16T07:46:59.707Z,12.13
2022-12-16T07:49:45.810Z,12.30
2022-12-16T07:52:32.974Z,14.50
2022-12-16T07:55:18.875Z,10.90
2022-12-16T07:58:09.134Z,12.93
2022-12-16T08:01:00.412Z,17.27
2022-12-16T08:03:48.615Z,20.70
2022-12-16T08:06:40.124Z,13.60
2022-12-16T08:09:26.312Z,16.63
2022-12-16T08:12:12.185Z,15.40
2022-12-16T08:14:58.263Z,14.00
2022-12-16T08:17:44.533Z,21.07
2022-12-16T08:20:30.432Z,14.53
2022-12-16T08:23:16.262Z,17.17
2022-12-16T08:26:02.453Z,16.20
2022-12-16T08:28:48.676Z,14.90
2022-12-16T08:31:34.663Z,20.90
2022-12-16T08:34:20.446Z,16.50
2022-12-16T08:37:06.412Z,16.27
2022-12-16T08:40:10.976Z,17.27
2022-12-16T08:42:58.268Z,14.70
2022-12-16T08:46:01.217Z,13.63
2022-12-16T08:48:47.291Z,13.70
2022-12-16T08:51:33.630Z,13.10
2022-12-16T08:54:19.823Z,14.27
2022-12-16T08:57:05.624Z,16.80
2022-12-16T08:59:51.358Z,15.77
2022-12-16T09:02:37.696Z,20.33
2022-12-16T09:05:24.244Z,17.43
2022-12-16T09:08:09.895Z,14.67
2022-12-16T09:10:55.930Z,15.30
2022-12-16T09:13:41.993Z,18.60
2022-12-16T09:16:28.286Z,18.23
2022-12-16T09:19:14.344Z,14.17
2022-12-16T09:22:00.283Z,16.27
2022-12-16T09:24:46.071Z,15.60
2022-12-16T09:27:32.134Z,15.93
2022-12-16T09:30:18.261Z,15.83
2022-12-16T09:33:04.616Z,15.10
2022-12-16T09:35:50.690Z,11.97
2022-12-16T09:38:38.163Z,12.87
2022-12-16T09:41:46.182Z,13.30
2022-12-16T09:45:01.307Z,15.43
2022-12-16T09:48:06.766Z,13.63
2022-12-16T09:50:56.794Z,14.10
2022-12-16T09:53:43.577Z,14.13
2022-12-16T09:56:39.727Z,12.57
2022-12-16T09:59:31.961Z,12.77
2022-12-16T10:02:19.341Z,12.43
2022-12-16T10:05:10.573Z,12.43
2022-12-16T10:08:17.265Z,13.83
2022-12-16T10:11:30.576Z,13.33
2022-12-16T10:14:20.357Z,13.73
2022-12-16T10:17:17.270Z,14.33
2022-12-16T10:20:09.691Z,13.00
2022-12-16T10:23:36.923Z,14.70
2022-12-16T10:26:45.136Z,13.23
2022-12-16T10:29:39.354Z,12.73
2022-12-16T10:32:38.122Z,13.20
2022-12-16T10:35:39.264Z,12.93
2022-12-16T10:38:37.165Z,12.40
2022-12-16T10:41:23.941Z,12.03
2022-12-16T10:44:11.410Z,15.50
2022-12-16T10:46:57.374Z,16.67
2022-12-16T10:49:43.279Z,12.87
2022-12-16T10:52:31.824Z,10.63
2022-12-16T10:55:33.303Z,14.20
2022-12-16T10:58:44.635Z,10.60
2022-12-16T11:01:45.876Z,8.07
2022-12-16T11:04:56.083Z,8.80
2022-12-16T11:07:46.830Z,8.17
2022-12-16T11:10:54.051Z,8.60
2022-12-16T11:13:51.668Z,8.73
2022-12-16T11:16:48.112Z,9.13
2022-12-16T11:19:46.782Z,8.70
2022-12-16T11:22:39.240Z,8.60
2022-12-16T11:25:32.688Z,8.87
2022-12-16T11:28:31.618Z,10.17
2022-12-16T11:31:21.893Z,9.70
2022-12-16T11:34:09.622Z,10.47
2022-12-16T11:36:58.305Z,10.40
2022-12-16T11:39:47.671Z,13.47
2022-12-16T11:42:41.802Z,10.70
2022-12-16T11:45:34.870Z,10.63
2022-12-16T11:48:49.551Z,11.27
2022-12-16T11:51:36.867Z,11.50
2022-12-16T11:54:42.022Z,10.87
2022-12-16T11:57:51.894Z,10.47
2022-12-16T12:00:38.798Z,11.50
2022-12-16T12:03:38.950Z,11.57
2022-12-16T12:06:40.914Z,10.80
2022-12-16T12:09:46.145Z,11.40
2022-12-16T12:13:04.059Z,13.87
2022-12-16T12:15:54.892Z,11.00
2022-12-16T12:19:00.436Z,11.90
2022-12-16T12:22:02.678Z,11.27
2022-12-16T12:25:15.647Z,11.60
2022-12-16T12:28:13.650Z,11.73
2022-12-16T12:31:26.591Z,12.80
2022-12-16T12:34:39.310Z,12.80
2022-12-16T12:37:32.224Z,11.80
2022-12-16T12:40:32.136Z,13.40
2022-12-16T12:43:20.889Z,18.20
2022-12-16T12:46:34.087Z,13.10
2022-12-16T12:49:37.314Z,13.33
2022-12-16T12:52:35.621Z,13.90
2022-12-16T12:55:30.890Z,14.20
2022-12-16T12:58:19.281Z,15.13
2022-12-16T13:01:10.311Z,14.53
2022-12-16T13:04:04.099Z,15.73
2022-12-16T13:06:53.478Z,14.03
2022-12-16T13:09:50.364Z,14.67
2022-12-16T13:12:43.364Z,14.00
2022-12-16T13:15:56.818Z,14.43
2022-12-16T13:18:51.508Z,17.40
2022-12-16T13:21:56.690Z,18.23
2022-12-16T13:25:03.826Z,17.50
2022-12-16T13:28:08.421Z,17.10
2022-12-16T13:31:11.697Z,16.17
2022-12-16T13:33:58.006Z,16.23
2022-12-16T13:36:53.282Z,16.17
2022-12-16T13:39:43.628Z,17.37
2022-12-16T13:43:06.189Z,18.03
2022-12-16T13:45:58.456Z,17.27
2022-12-16T13:48:57.281Z,17.50
2022-12-16T13:51:58.096Z,18.13
2022-12-16T13:54:58.223Z,18.80
2022-12-16T13:57:47.526Z,18.03
2022-12-16T14:00:40.126Z,17.90
2022-12-16T14:03:41.314Z,19.67
2022-12-16T14:06:36.989Z,19.73
2022-12-16T14:09:23.386Z,19.10
2022-12-16T14:12:22.873Z,22.13
2022-12-16T14:15:19.788Z,19.53
2022-12-16T14:18:19.812Z,19.27
2022-12-16T14:21:19.673Z,19.87
2022-12-16T14:24:12.277Z,21.93
2022-12-16T14:26:59.143Z,18.77
2022-12-16T14:29:51.149Z,19.40
2022-12-16T14:32:54.902Z,20.93
2022-12-16T14:35:43.752Z,20.83
2022-12-16T14:38:47.577Z,29.17
2022-12-16T14:41:37.961Z,29.83
2022-12-16T14:44:43.683Z,25.80
2022-12-16T14:47:38.790Z,23.73
2022-12-16T14:50:46.194Z,24.30
2022-12-16T14:53:43.202Z,23.50
2022-12-16T14:56:35.323Z,22.10
2022-12-16T14:59:30.149Z,24.77
2022-12-16T15:02:17.708Z,26.27
2022-12-16T15:05:04.866Z,29.20
2022-12-16T15:07:55.859Z,28.60
2022-12-16T15:10:45.571Z,25.50
2022-12-16T15:13:38.246Z,25.50
2022-12-16T15:16:25.323Z,27.43
2022-12-16T15:19:18.219Z,28.43
2022-12-16T15:22:04.748Z,26.30
2022-12-16T15:24:56.497Z,26.77
2022-12-16T15:27:45.784Z,31.97
2022-12-16T15:31:00.401Z,28.47
2022-12-16T15:33:49.302Z,27.20
2022-12-16T15:36:58.946Z,31.77
2022-12-16T15:39:55.367Z,28.77
2022-12-16T15:42:44.722Z,30.20
2022-12-16T15:45:47.416Z,29.43
2022-12-16T15:48:36.616Z,30.87
2022-12-16T15:51:22.751Z,30.53
2022-12-16T15:54:21.753Z,36.80
2022-12-16T15:57:08.149Z,35.00
2022-12-16T15:59:55.620Z,39.10
2022-12-16T16:02:46.092Z,37.07
2022-12-16T16:05:38.203Z,38.93
2022-12-16T16:08:24.611Z,40.07
2022-12-16T16:11:10.787Z,39.90
2022-12-16T16:14:01.035Z,37.80
2022-12-16T16:16:51.217Z,41.63
2022-12-16T16:19:42.406Z,38.83
2022-12-16T16:22:34.871Z,39.37
2022-12-16T16:25:20.956Z,39.30
2022-12-16T16:28:07.102Z,42.97
2022-12-16T16:30:53.054Z,41.87
2022-12-16T16:33:38.902Z,41.53
2022-12-16T16:36:34.712Z,40.00
2022-12-16T16:39:20.913Z,41.70
2022-12-16T16:42:06.889Z,42.00
2022-12-16T16:44:52.798Z,39.77
2022-12-16T16:47:39.306Z,40.20
2022-12-16T16:50:25.316Z,39.30
2022-12-16T16:53:11.467Z,36.80
2022-12-16T16:55:57.889Z,38.73
2022-12-16T16:58:46.752Z,31.13
2022-12-16T17:01:34.770Z,33.17
2022-12-16T17:04:21.180Z,35.87
2022-12-16T17:07:07.647Z,35.10
2022-12-16T17:09:53.801Z,36.60
2022-12-16T17:12:42.928Z,38.50
2022-12-16T17:15:41.456Z,40.13
2022-12-16T17:18:27.881Z,40.23
2022-12-16T17:21:13.847Z,42.10
2022-12-16T17:24:00.079Z,40.03
2022-12-16T17:26:46.424Z,39.60
2022-12-16T17:29:42.492Z,41.73
2022-12-16T17:32:29.488Z,41.80
2022-12-16T17:35:15.997Z,41.43
2022-12-16T17:38:03.299Z,43.53
2022-12-16T17:40:49.343Z,45.57
2022-12-16T17:43:35.612Z,49.80
2022-12-16T17:46:24.845Z,46.17
2022-12-16T17:49:12.268Z,48.53
2022-12-16T17:51:58.670Z,48.27
2022-12-16T17:54:44.795Z,46.57
2022-12-16T17:57:31.287Z,51.13
2022-12-16T18:00:17.588Z,57.77
2022-12-16T18:03:03.814Z,49.17
2022-12-16T18:05:49.948Z,50.40
2022-12-16T18:08:42.532Z,56.07
2022-12-16T18:11:28.697Z,59.43
2022-12-16T18:14:17.538Z,52.40
2022-12-16T18:17:03.450Z,48.23
2022-12-16T18:19:50.669Z,51.00
2022-12-16T18:22:37.102Z,60.23
2022-12-16T18:25:24.155Z,46.47
2022-12-16T18:28:10.343Z,51.10
2022-12-16T18:30:56.569Z,69.37
2022-12-16T18:33:42.546Z,52.63
2022-12-16T18:36:28.311Z,52.80
2022-12-16T18:39:14.227Z,54.53
2022-12-16T18:42:05.703Z,56.63
2022-12-16T18:44:57.547Z,52.50
2022-12-16T18:47:46.904Z,51.63
2022-12-16T18:50:37.690Z,55.17
2022-12-16T18:53:24.605Z,50.40
2022-12-16T18:56:22.660Z,48.73
2022-12-16T18:59:08.627Z,54.20
2022-12-16T19:01:54.693Z,51.20
2022-12-16T19:04:40.666Z,50.33
2022-12-16T19:07:26.745Z,52.60
2022-12-16T19:10:12.448Z,52.57
2022-12-16T19:12:58.792Z,50.00
2022-12-16T19:15:44.632Z,50.00
2022-12-16T19:18:30.848Z,46.27
2022-12-16T19:21:16.886Z,52.07
2022-12-16T19:24:04.884Z,50.10
2022-12-16T19:26:50.815Z,48.63
2022-12-16T19:29:37.874Z,51.93
2022-12-16T19:32:24.071Z,49.60
2022-12-16T19:35:10.113Z,48.67
2022-12-16T19:37:56.972Z,50.17
2022-12-16T19:40:42.951Z,48.20
2022-12-16T19:43:28.950Z,46.80
2022-12-16T19:46:15.699Z,47.70
2022-12-16T19:49:01.876Z,48.00
2022-12-16T19:51:47.643Z,45.23
2022-12-16T19:54:33.662Z,53.50
2022-12-16T19:57:19.971Z,48.63
2022-12-16T20:00:05.903Z,50.13
2022-12-16T20:02:58.069Z,48.60
2022-12-16T20:05:44.003Z,49.27
2022-12-16T20:08:34.635Z,46.50
2022-12-16T20:11:25.658Z,44.70
2022-12-16T20:14:13.517Z,46.50
2022-12-16T20:16:59.906Z,48.00
2022-12-16T20:19:46.207Z,45.90
2022-12-16T20:22:32.076Z,47.80
2022-12-16T20:25:17.994Z,49.00
2022-12-16T20:28:04.045Z,47.40
2022-12-16T20:30:50.591Z,44.17
2022-12-16T20:33:37.646Z,44.83
2022-12-16T20:36:24.152Z,44.60
2022-12-16T20:39:10.349Z,46.80
2022-12-16T20:45:03.549Z,44.20
2022-12-16T20:47:50.141Z,48.77
2022-12-16T20:50:36.275Z,44.27
2022-12-16T20:53:22.109Z,46.53
2022-12-16T20:56:08.165Z,46.50
2022-12-16T20:58:56.045Z,46.67
2022-12-16T21:04:48.543Z,48.20
2022-12-16T21:07:34.613Z,45.90
2022-12-16T21:10:20.839Z,48.83
2022-12-16T21:13:07.190Z,48.30
2022-12-16T21:15:53.316Z,48.60
2022-12-16T21:18:43.095Z,45.40
2022-12-16T21:21:39.617Z,44.93
2022-12-16T21:24:25.850Z,48.33
2022-12-16T21:27:12.011Z,45.80
2022-12-16T21:29:57.781Z,49.27
2022-12-16T21:32:44.612Z,50.37
2022-12-16T21:35:30.448Z,50.03
2022-12-16T21:38:16.718Z,47.80
2022-12-16T21:41:08.907Z,49.03
2022-12-16T21:43:55.727Z,52.00
2022-12-16T21:46:42.328Z,48.50
2022-12-16T21:49:29.482Z,46.03
2022-12-16T21:52:15.457Z,51.90
2022-12-16T21:55:01.302Z,50.70
2022-12-16T21:57:47.323Z,48.40
2022-12-16T22:00:33.854Z,50.33
2022-12-16T22:03:19.885Z,50.17
2022-12-16T22:06:06.105Z,50.17
2022-12-16T22:08:52.185Z,49.87
2022-12-16T22:11:38.145Z,45.60
2022-12-16T22:14:24.015Z,49.00
2022-12-16T22:17:10.234Z,46.03
2022-12-16T22:19:56.742Z,47.50
2022-12-16T22:22:42.605Z,48.70
2022-12-16T22:25:29.010Z,47.07
2022-12-16T22:28:15.145Z,48.07
2022-12-16T22:31:01.135Z,46.47
2022-12-16T22:33:47.704Z,46.30
2022-12-16T22:36:33.765Z,44.00
2022-12-16T22:39:19.793Z,48.47
2022-12-16T22:42:05.812Z,46.07
2022-12-16T22:44:51.930Z,43.97
2022-12-16T22:47:37.902Z,40.80
2022-12-16T22:50:24.969Z,42.07
2022-12-16T22:53:10.869Z,40.70
2022-12-16T22:56:01.799Z,39.33
2022-12-16T22:58:48.395Z,41.20
2022-12-16T23:01:34.411Z,39.03
2022-12-16T23:04:20.524Z,41.10
2022-12-16T23:07:06.382Z,40.57
2022-12-16T23:09:53.312Z,37.90
2022-12-16T23:12:40.200Z,41.07
2022-12-16T23:15:29.284Z,42.40
2022-12-16T23:18:15.252Z,40.00
2022-12-16T23:21:09.618Z,42.00
2022-12-16T23:23:56.771Z,37.27
2022-12-16T23:26:43.121Z,39.53
2022-12-16T23:29:28.947Z,41.67
2022-12-16T23:32:15.741Z,39.90
2022-12-16T23:35:01.620Z,40.70
2022-12-16T23:37:47.664Z,40.53
2022-12-16T23:40:34.893Z,41.50
2022-12-16T23:43:20.994Z,41.33
2022-12-16T23:46:07.046Z,39.90
2022-12-16T23:48:53.247Z,41.70
2022-12-16T23:51:39.666Z,40.87
2022-12-16T23:54:25.743Z,37.70
2022-12-16T23:57:11.812Z,38.23
2022-12-16T23:59:57.515Z,42.17
